sensor_id;sensor_type;location;lat;lon;timestamp;P1;durP1;ratioP1;P2;durP2;ratioP2
51780;SDS011;37844;57.126;24.288;2022-07-01T00:01:53;13.48;;;8.35;;
51780;SDS011;37844;57.126;24.288;2022-07-01T00:04:19;15.43;;;8.35;;
51780;SDS011;37844;57.126;24.288;2022-07-01T00:06:45;15.55;;;8.55;;
51780;SDS011;37844;57.126;24.288;2022-07-01T00:09:11;16.30;;;8.77;;
51780;SDS011;37844;57.126;24.288;2022-07-01T00:11:36;12.35;;;9.15;;
51780;SDS011;37844;57.126;24.288;2022-07-01T00:14:02;11.43;;;8.23;;
51780;SDS011;37844;57.126;24.288;2022-07-01T00:16:27;17.88;;;8.18;;
51780;SDS011;37844;57.126;24.288;2022-07-01T00:18:53;11.82;;;7.65;;
51780;SDS011;37844;57.126;24.288;2022-07-01T00:21:18;16.15;;;7.60;;
51780;SDS011;37844;57.126;24.288;2022-07-01T00:23:44;11.35;;;8.25;;
51780;SDS011;37844;57.126;24.288;2022-07-01T00:26:09;12.52;;;7.80;;
51780;SDS011;37844;57.126;24.288;2022-07-01T00:28:35;13.05;;;9.30;;
51780;SDS011;37844;57.126;24.288;2022-07-01T00:31:00;12.38;;;8.10;;
51780;SDS011;37844;57.126;24.288;2022-07-01T00:33:26;12.90;;;7.70;;
51780;SDS011;37844;57.126;24.288;2022-07-01T00:35:51;9.63;;;7.22;;
51780;SDS011;37844;57.126;24.288;2022-07-01T00:38:18;17.58;;;8.63;;
51780;SDS011;37844;57.126;24.288;2022-07-01T00:40:43;12.00;;;8.52;;
51780;SDS011;37844;57.126;24.288;2022-07-01T00:43:09;17.40;;;8.15;;
51780;SDS011;37844;57.126;24.288;2022-07-01T00:45:34;12.05;;;7.30;;
51780;SDS011;37844;57.126;24.288;2022-07-01T00:48:00;12.95;;;8.13;;
51780;SDS011;37844;57.126;24.288;2022-07-01T00:50:25;18.02;;;7.72;;
51780;SDS011;37844;57.126;24.288;2022-07-01T00:52:51;13.45;;;8.10;;
51780;SDS011;37844;57.126;24.288;2022-07-01T00:55:17;12.10;;;8.02;;
51780;SDS011;37844;57.126;24.288;2022-07-01T00:57:43;14.45;;;7.80;;
51780;SDS011;37844;57.126;24.288;2022-07-01T01:00:13;22.30;;;8.38;;
51780;SDS011;37844;57.126;24.288;2022-07-01T01:02:49;9.45;;;6.78;;
51780;SDS011;37844;57.126;24.288;2022-07-01T01:05:15;21.70;;;8.13;;
51780;SDS011;37844;57.126;24.288;2022-07-01T01:07:48;14.75;;;7.78;;
51780;SDS011;37844;57.126;24.288;2022-07-01T01:10:17;20.20;;;7.35;;
51780;SDS011;37844;57.126;24.288;2022-07-01T01:12:43;12.95;;;7.65;;
51780;SDS011;37844;57.126;24.288;2022-07-01T01:15:09;9.70;;;7.35;;
51780;SDS011;37844;57.126;24.288;2022-07-01T01:17:35;16.00;;;7.10;;
51780;SDS011;37844;57.126;24.288;2022-07-01T01:20:02;16.65;;;7.97;;
51780;SDS011;37844;57.126;24.288;2022-07-01T01:22:28;20.67;;;8.60;;
51780;SDS011;37844;57.126;24.288;2022-07-01T01:24:54;10.77;;;7.32;;
51780;SDS011;37844;57.126;24.288;2022-07-01T01:27:19;26.92;;;8.07;;
51780;SDS011;37844;57.126;24.288;2022-07-01T01:29:45;19.75;;;7.97;;
51780;SDS011;37844;57.126;24.288;2022-07-01T01:32:11;12.95;;;7.82;;
51780;SDS011;37844;57.126;24.288;2022-07-01T01:34:37;18.40;;;8.18;;
51780;SDS011;37844;57.126;24.288;2022-07-01T01:37:04;24.20;;;7.93;;
51780;SDS011;37844;57.126;24.288;2022-07-01T01:39:31;18.13;;;7.93;;
51780;SDS011;37844;57.126;24.288;2022-07-01T01:41:57;24.25;;;7.22;;
51780;SDS011;37844;57.126;24.288;2022-07-01T01:44:23;14.20;;;7.20;;
51780;SDS011;37844;57.126;24.288;2022-07-01T01:46:49;24.63;;;7.88;;
51780;SDS011;37844;57.126;24.288;2022-07-01T01:49:14;12.27;;;8.63;;
51780;SDS011;37844;57.126;24.288;2022-07-01T01:51:40;9.95;;;6.35;;
51780;SDS011;37844;57.126;24.288;2022-07-01T01:54:08;17.75;;;8.27;;
51780;SDS011;37844;57.126;24.288;2022-07-01T01:56:34;12.25;;;8.30;;
51780;SDS011;37844;57.126;24.288;2022-07-01T01:58:59;17.05;;;7.68;;
51780;SDS011;37844;57.126;24.288;2022-07-01T02:01:25;16.67;;;7.75;;
51780;SDS011;37844;57.126;24.288;2022-07-01T02:03:51;15.80;;;8.25;;
51780;SDS011;37844;57.126;24.288;2022-07-01T02:06:18;12.40;;;7.95;;
51780;SDS011;37844;57.126;24.288;2022-07-01T02:08:44;13.95;;;8.18;;
51780;SDS011;37844;57.126;24.288;2022-07-01T02:11:10;18.35;;;8.15;;
51780;SDS011;37844;57.126;24.288;2022-07-01T02:13:36;10.90;;;6.30;;
51780;SDS011;37844;57.126;24.288;2022-07-01T02:16:02;14.15;;;7.00;;
51780;SDS011;37844;57.126;24.288;2022-07-01T02:18:28;13.18;;;6.78;;
51780;SDS011;37844;57.126;24.288;2022-07-01T02:20:55;11.55;;;7.60;;
51780;SDS011;37844;57.126;24.288;2022-07-01T02:23:20;17.48;;;7.68;;
51780;SDS011;37844;57.126;24.288;2022-07-01T02:25:47;14.23;;;6.90;;
51780;SDS011;37844;57.126;24.288;2022-07-01T02:28:13;21.25;;;7.35;;
51780;SDS011;37844;57.126;24.288;2022-07-01T02:30:39;12.90;;;6.82;;
51780;SDS011;37844;57.126;24.288;2022-07-01T02:33:06;12.05;;;7.00;;
51780;SDS011;37844;57.126;24.288;2022-07-01T02:35:33;14.10;;;7.60;;
51780;SDS011;37844;57.126;24.288;2022-07-01T02:37:59;15.68;;;8.52;;
51780;SDS011;37844;57.126;24.288;2022-07-01T02:40:25;13.52;;;7.30;;
51780;SDS011;37844;57.126;24.288;2022-07-01T02:42:50;12.75;;;7.78;;
51780;SDS011;37844;57.126;24.288;2022-07-01T02:45:16;10.32;;;7.00;;
51780;SDS011;37844;57.126;24.288;2022-07-01T02:47:42;11.20;;;6.90;;
51780;SDS011;37844;57.126;24.288;2022-07-01T02:50:09;11.48;;;7.18;;
51780;SDS011;37844;57.126;24.288;2022-07-01T02:52:36;13.25;;;6.57;;
51780;SDS011;37844;57.126;24.288;2022-07-01T02:55:02;9.75;;;6.43;;
51780;SDS011;37844;57.126;24.288;2022-07-01T02:57:32;10.93;;;6.82;;
51780;SDS011;37844;57.126;24.288;2022-07-01T02:59:58;11.82;;;6.95;;
51780;SDS011;37844;57.126;24.288;2022-07-01T03:02:24;10.50;;;7.10;;
51780;SDS011;37844;57.126;24.288;2022-07-01T03:04:50;11.80;;;6.43;;
51780;SDS011;37844;57.126;24.288;2022-07-01T03:07:16;17.90;;;7.47;;
51780;SDS011;37844;57.126;24.288;2022-07-01T03:09:42;9.15;;;6.32;;
51780;SDS011;37844;57.126;24.288;2022-07-01T03:12:09;13.15;;;6.43;;
51780;SDS011;37844;57.126;24.288;2022-07-01T03:14:53;11.77;;;6.97;;
51780;SDS011;37844;57.126;24.288;2022-07-01T03:17:19;12.15;;;6.97;;
51780;SDS011;37844;57.126;24.288;2022-07-01T03:19:45;14.45;;;6.97;;
51780;SDS011;37844;57.126;24.288;2022-07-01T03:22:11;11.57;;;6.55;;
51780;SDS011;37844;57.126;24.288;2022-07-01T03:24:37;10.32;;;5.95;;
51780;SDS011;37844;57.126;24.288;2022-07-01T03:27:02;15.38;;;6.97;;
51780;SDS011;37844;57.126;24.288;2022-07-01T03:29:28;10.05;;;6.78;;
51780;SDS011;37844;57.126;24.288;2022-07-01T03:31:54;9.93;;;6.93;;
51780;SDS011;37844;57.126;24.288;2022-07-01T03:34:20;18.42;;;7.03;;
51780;SDS011;37844;57.126;24.288;2022-07-01T03:36:46;14.88;;;7.63;;
51780;SDS011;37844;57.126;24.288;2022-07-01T03:39:11;9.43;;;6.60;;
51780;SDS011;37844;57.126;24.288;2022-07-01T03:41:37;11.25;;;6.53;;
51780;SDS011;37844;57.126;24.288;2022-07-01T03:44:02;8.68;;;6.63;;
51780;SDS011;37844;57.126;24.288;2022-07-01T03:46:28;9.70;;;6.75;;
51780;SDS011;37844;57.126;24.288;2022-07-01T03:48:57;11.98;;;5.90;;
51780;SDS011;37844;57.126;24.288;2022-07-01T03:51:23;10.02;;;6.47;;
51780;SDS011;37844;57.126;24.288;2022-07-01T03:53:48;11.30;;;7.65;;
51780;SDS011;37844;57.126;24.288;2022-07-01T03:56:32;13.45;;;7.38;;
51780;SDS011;37844;57.126;24.288;2022-07-01T03:58:58;10.20;;;7.07;;
51780;SDS011;37844;57.126;24.288;2022-07-01T04:01:23;14.65;;;6.32;;
51780;SDS011;37844;57.126;24.288;2022-07-01T04:03:49;13.07;;;6.57;;
51780;SDS011;37844;57.126;24.288;2022-07-01T04:06:14;8.90;;;6.72;;
51780;SDS011;37844;57.126;24.288;2022-07-01T04:08:40;12.45;;;7.40;;
51780;SDS011;37844;57.126;24.288;2022-07-01T04:11:06;8.20;;;5.95;;
51780;SDS011;37844;57.126;24.288;2022-07-01T04:13:37;9.27;;;6.18;;
51780;SDS011;37844;57.126;24.288;2022-07-01T04:16:03;25.03;;;6.70;;
51780;SDS011;37844;57.126;24.288;2022-07-01T04:18:29;12.68;;;7.30;;
51780;SDS011;37844;57.126;24.288;2022-07-01T04:20:54;12.98;;;7.50;;
51780;SDS011;37844;57.126;24.288;2022-07-01T04:23:51;9.75;;;6.68;;
51780;SDS011;37844;57.126;24.288;2022-07-01T04:26:17;11.05;;;6.80;;
51780;SDS011;37844;57.126;24.288;2022-07-01T04:28:43;16.63;;;6.85;;
51780;SDS011;37844;57.126;24.288;2022-07-01T04:31:08;17.40;;;7.57;;
51780;SDS011;37844;57.126;24.288;2022-07-01T04:33:34;13.85;;;7.30;;
51780;SDS011;37844;57.126;24.288;2022-07-01T04:35:59;12.38;;;5.82;;
51780;SDS011;37844;57.126;24.288;2022-07-01T04:38:25;12.40;;;6.22;;
51780;SDS011;37844;57.126;24.288;2022-07-01T04:40:50;21.30;;;6.85;;
51780;SDS011;37844;57.126;24.288;2022-07-01T04:43:34;17.98;;;7.35;;
51780;SDS011;37844;57.126;24.288;2022-07-01T04:46:00;13.82;;;7.78;;
51780;SDS011;37844;57.126;24.288;2022-07-01T04:48:25;10.13;;;6.60;;
51780;SDS011;37844;57.126;24.288;2022-07-01T04:50:51;20.45;;;6.88;;
51780;SDS011;37844;57.126;24.288;2022-07-01T04:53:16;7.95;;;5.88;;
51780;SDS011;37844;57.126;24.288;2022-07-01T04:55:42;13.20;;;6.32;;
51780;SDS011;37844;57.126;24.288;2022-07-01T04:58:07;11.80;;;6.57;;
51780;SDS011;37844;57.126;24.288;2022-07-01T05:00:33;10.05;;;7.00;;
51780;SDS011;37844;57.126;24.288;2022-07-01T05:02:58;9.25;;;6.13;;
51780;SDS011;37844;57.126;24.288;2022-07-01T05:05:24;11.80;;;6.88;;
51780;SDS011;37844;57.126;24.288;2022-07-01T05:07:49;19.40;;;7.20;;
51780;SDS011;37844;57.126;24.288;2022-07-01T05:10:15;12.15;;;7.57;;
51780;SDS011;37844;57.126;24.288;2022-07-01T05:12:41;11.40;;;6.95;;
51780;SDS011;37844;57.126;24.288;2022-07-01T05:15:06;21.38;;;6.65;;
51780;SDS011;37844;57.126;24.288;2022-07-01T05:17:33;11.52;;;6.70;;
51780;SDS011;37844;57.126;24.288;2022-07-01T05:20:18;18.52;;;5.80;;
51780;SDS011;37844;57.126;24.288;2022-07-01T05:23:02;11.50;;;5.97;;
51780;SDS011;37844;57.126;24.288;2022-07-01T05:25:28;10.80;;;5.90;;
51780;SDS011;37844;57.126;24.288;2022-07-01T05:27:53;14.02;;;5.50;;
51780;SDS011;37844;57.126;24.288;2022-07-01T05:30:22;9.77;;;6.65;;
51780;SDS011;37844;57.126;24.288;2022-07-01T05:32:47;11.27;;;5.93;;
51780;SDS011;37844;57.126;24.288;2022-07-01T05:35:13;13.18;;;5.60;;
51780;SDS011;37844;57.126;24.288;2022-07-01T05:37:39;14.02;;;6.25;;
51780;SDS011;37844;57.126;24.288;2022-07-01T05:40:05;10.63;;;5.72;;
51780;SDS011;37844;57.126;24.288;2022-07-01T05:42:31;13.32;;;6.57;;
51780;SDS011;37844;57.126;24.288;2022-07-01T05:44:57;12.80;;;6.18;;
51780;SDS011;37844;57.126;24.288;2022-07-01T05:47:22;11.93;;;7.07;;
51780;SDS011;37844;57.126;24.288;2022-07-01T05:49:47;8.38;;;5.57;;
51780;SDS011;37844;57.126;24.288;2022-07-01T05:52:13;12.50;;;5.97;;
51780;SDS011;37844;57.126;24.288;2022-07-01T05:54:39;9.02;;;5.95;;
51780;SDS011;37844;57.126;24.288;2022-07-01T05:57:04;8.82;;;5.90;;
51780;SDS011;37844;57.126;24.288;2022-07-01T05:59:30;10.90;;;5.38;;
51780;SDS011;37844;57.126;24.288;2022-07-01T06:01:55;9.40;;;5.00;;
51780;SDS011;37844;57.126;24.288;2022-07-01T06:04:21;14.50;;;6.10;;
51780;SDS011;37844;57.126;24.288;2022-07-01T06:06:47;10.55;;;6.35;;
51780;SDS011;37844;57.126;24.288;2022-07-01T06:09:13;9.48;;;6.57;;
51780;SDS011;37844;57.126;24.288;2022-07-01T06:11:38;9.75;;;5.82;;
51780;SDS011;37844;57.126;24.288;2022-07-01T06:14:04;10.68;;;5.93;;
51780;SDS011;37844;57.126;24.288;2022-07-01T06:16:30;9.48;;;5.90;;
51780;SDS011;37844;57.126;24.288;2022-07-01T06:18:55;12.90;;;6.88;;
51780;SDS011;37844;57.126;24.288;2022-07-01T06:21:21;15.80;;;5.95;;
51780;SDS011;37844;57.126;24.288;2022-07-01T06:23:46;9.70;;;6.05;;
51780;SDS011;37844;57.126;24.288;2022-07-01T06:26:12;16.90;;;6.30;;
51780;SDS011;37844;57.126;24.288;2022-07-01T06:28:37;10.95;;;5.95;;
51780;SDS011;37844;57.126;24.288;2022-07-01T06:31:03;10.43;;;6.30;;
51780;SDS011;37844;57.126;24.288;2022-07-01T06:33:28;11.82;;;5.80;;
51780;SDS011;37844;57.126;24.288;2022-07-01T06:35:56;11.05;;;6.72;;
51780;SDS011;37844;57.126;24.288;2022-07-01T06:38:23;9.98;;;5.90;;
51780;SDS011;37844;57.126;24.288;2022-07-01T06:40:49;22.27;;;7.10;;
51780;SDS011;37844;57.126;24.288;2022-07-01T06:43:33;11.90;;;6.40;;
51780;SDS011;37844;57.126;24.288;2022-07-01T06:46:00;10.85;;;6.30;;
51780;SDS011;37844;57.126;24.288;2022-07-01T06:48:26;8.73;;;6.18;;
51780;SDS011;37844;57.126;24.288;2022-07-01T06:50:51;10.38;;;6.35;;
51780;SDS011;37844;57.126;24.288;2022-07-01T06:53:17;11.10;;;6.13;;
51780;SDS011;37844;57.126;24.288;2022-07-01T06:55:42;13.45;;;6.78;;
51780;SDS011;37844;57.126;24.288;2022-07-01T06:58:08;10.50;;;6.35;;
51780;SDS011;37844;57.126;24.288;2022-07-01T07:00:35;12.00;;;6.72;;
51780;SDS011;37844;57.126;24.288;2022-07-01T07:03:01;9.63;;;6.47;;
51780;SDS011;37844;57.126;24.288;2022-07-01T07:05:26;9.90;;;6.82;;
51780;SDS011;37844;57.126;24.288;2022-07-01T07:07:55;22.13;;;6.83;;
51780;SDS011;37844;57.126;24.288;2022-07-01T07:10:20;13.57;;;7.18;;
51780;SDS011;37844;57.126;24.288;2022-07-01T07:12:46;12.18;;;7.75;;
51780;SDS011;37844;57.126;24.288;2022-07-01T07:15:12;10.90;;;6.50;;
51780;SDS011;37844;57.126;24.288;2022-07-01T07:17:38;11.52;;;6.68;;
51780;SDS011;37844;57.126;24.288;2022-07-01T07:20:03;14.55;;;7.28;;
51780;SDS011;37844;57.126;24.288;2022-07-01T07:22:29;13.15;;;6.28;;
51780;SDS011;37844;57.126;24.288;2022-07-01T07:24:55;15.13;;;6.97;;
51780;SDS011;37844;57.126;24.288;2022-07-01T07:27:21;7.90;;;5.93;;
51780;SDS011;37844;57.126;24.288;2022-07-01T07:29:46;12.32;;;6.55;;
51780;SDS011;37844;57.126;24.288;2022-07-01T07:32:12;15.40;;;7.72;;
51780;SDS011;37844;57.126;24.288;2022-07-01T07:34:37;13.07;;;6.57;;
51780;SDS011;37844;57.126;24.288;2022-07-01T07:37:03;8.05;;;6.20;;
51780;SDS011;37844;57.126;24.288;2022-07-01T07:39:29;13.00;;;6.35;;
51780;SDS011;37844;57.126;24.288;2022-07-01T07:41:54;12.18;;;6.00;;
51780;SDS011;37844;57.126;24.288;2022-07-01T07:44:21;8.23;;;5.95;;
51780;SDS011;37844;57.126;24.288;2022-07-01T07:46:46;12.48;;;6.15;;
51780;SDS011;37844;57.126;24.288;2022-07-01T07:49:11;9.63;;;5.32;;
51780;SDS011;37844;57.126;24.288;2022-07-01T07:51:37;8.30;;;5.43;;
51780;SDS011;37844;57.126;24.288;2022-07-01T07:54:03;11.90;;;5.30;;
51780;SDS011;37844;57.126;24.288;2022-07-01T07:56:29;13.20;;;5.70;;
51780;SDS011;37844;57.126;24.288;2022-07-01T07:58:55;8.93;;;5.03;;
51780;SDS011;37844;57.126;24.288;2022-07-01T08:01:21;11.55;;;5.88;;
51780;SDS011;37844;57.126;24.288;2022-07-01T08:03:46;8.55;;;5.45;;
51780;SDS011;37844;57.126;24.288;2022-07-01T08:06:12;8.70;;;5.38;;
51780;SDS011;37844;57.126;24.288;2022-07-01T08:08:37;12.00;;;6.82;;
51780;SDS011;37844;57.126;24.288;2022-07-01T08:11:03;12.60;;;6.68;;
51780;SDS011;37844;57.126;24.288;2022-07-01T08:13:28;9.38;;;6.30;;
51780;SDS011;37844;57.126;24.288;2022-07-01T08:15:55;11.73;;;6.80;;
51780;SDS011;37844;57.126;24.288;2022-07-01T08:18:21;13.07;;;6.07;;
51780;SDS011;37844;57.126;24.288;2022-07-01T08:20:47;16.80;;;7.07;;
51780;SDS011;37844;57.126;24.288;2022-07-01T08:23:15;13.13;;;6.57;;
51780;SDS011;37844;57.126;24.288;2022-07-01T08:25:41;15.00;;;7.50;;
51780;SDS011;37844;57.126;24.288;2022-07-01T08:28:07;11.45;;;7.18;;
51780;SDS011;37844;57.126;24.288;2022-07-01T08:30:32;34.38;;;7.55;;
51780;SDS011;37844;57.126;24.288;2022-07-01T08:32:58;15.65;;;6.57;;
51780;SDS011;37844;57.126;24.288;2022-07-01T08:35:23;9.18;;;6.45;;
51780;SDS011;37844;57.126;24.288;2022-07-01T08:37:49;16.33;;;6.90;;
51780;SDS011;37844;57.126;24.288;2022-07-01T08:40:14;19.48;;;7.43;;
51780;SDS011;37844;57.126;24.288;2022-07-01T08:42:40;15.40;;;6.28;;
51780;SDS011;37844;57.126;24.288;2022-07-01T08:45:08;20.70;;;7.47;;
51780;SDS011;37844;57.126;24.288;2022-07-01T08:47:33;11.85;;;6.82;;
51780;SDS011;37844;57.126;24.288;2022-07-01T08:50:00;9.02;;;6.18;;
51780;SDS011;37844;57.126;24.288;2022-07-01T08:52:27;17.40;;;6.15;;
51780;SDS011;37844;57.126;24.288;2022-07-01T08:54:53;9.07;;;5.70;;
51780;SDS011;37844;57.126;24.288;2022-07-01T08:57:21;11.63;;;6.07;;
51780;SDS011;37844;57.126;24.288;2022-07-01T09:00:00;8.00;;;5.53;;
51780;SDS011;37844;57.126;24.288;2022-07-01T09:05:20;8.32;;;4.90;;
51780;SDS011;37844;57.126;24.288;2022-07-01T09:07:47;8.93;;;5.57;;
51780;SDS011;37844;57.126;24.288;2022-07-01T09:10:13;6.88;;;4.72;;
51780;SDS011;37844;57.126;24.288;2022-07-01T09:12:42;12.52;;;4.47;;
51780;SDS011;37844;57.126;24.288;2022-07-01T09:17:46;8.68;;;5.57;;
51780;SDS011;37844;57.126;24.288;2022-07-01T09:20:30;7.05;;;4.63;;
51780;SDS011;37844;57.126;24.288;2022-07-01T09:25:43;9.70;;;5.13;;
51780;SDS011;37844;57.126;24.288;2022-07-01T09:28:17;9.23;;;5.00;;
51780;SDS011;37844;57.126;24.288;2022-07-01T09:30:48;11.75;;;4.97;;
51780;SDS011;37844;57.126;24.288;2022-07-01T09:33:22;9.35;;;5.07;;
51780;SDS011;37844;57.126;24.288;2022-07-01T09:35:54;12.85;;;5.93;;
51780;SDS011;37844;57.126;24.288;2022-07-01T09:38:21;8.15;;;5.47;;
51780;SDS011;37844;57.126;24.288;2022-07-01T09:40:56;7.82;;;5.15;;
51780;SDS011;37844;57.126;24.288;2022-07-01T09:43:26;10.52;;;5.78;;
51780;SDS011;37844;57.126;24.288;2022-07-01T09:51:04;10.20;;;6.05;;
51780;SDS011;37844;57.126;24.288;2022-07-01T09:53:31;12.25;;;5.78;;
51780;SDS011;37844;57.126;24.288;2022-07-01T09:55:57;9.32;;;5.82;;
51780;SDS011;37844;57.126;24.288;2022-07-01T09:58:23;19.50;;;5.60;;
51780;SDS011;37844;57.126;24.288;2022-07-01T10:00:49;6.53;;;4.97;;
51780;SDS011;37844;57.126;24.288;2022-07-01T10:03:17;9.50;;;5.38;;
51780;SDS011;37844;57.126;24.288;2022-07-01T10:14:03;13.35;;;5.90;;
51780;SDS011;37844;57.126;24.288;2022-07-01T10:16:30;9.50;;;6.10;;
51780;SDS011;37844;57.126;24.288;2022-07-01T10:18:57;10.40;;;5.57;;
51780;SDS011;37844;57.126;24.288;2022-07-01T10:21:27;11.43;;;5.82;;
51780;SDS011;37844;57.126;24.288;2022-07-01T10:24:10;15.38;;;5.63;;
51780;SDS011;37844;57.126;24.288;2022-07-01T10:26:41;8.60;;;6.00;;
51780;SDS011;37844;57.126;24.288;2022-07-01T10:31:51;10.80;;;5.68;;
51780;SDS011;37844;57.126;24.288;2022-07-01T10:34:17;16.23;;;6.95;;
51780;SDS011;37844;57.126;24.288;2022-07-01T10:36:44;9.32;;;6.07;;
51780;SDS011;37844;57.126;24.288;2022-07-01T10:39:10;7.70;;;6.15;;
51780;SDS011;37844;57.126;24.288;2022-07-01T10:44:24;10.32;;;6.70;;
51780;SDS011;37844;57.126;24.288;2022-07-01T10:46:51;11.77;;;6.78;;
51780;SDS011;37844;57.126;24.288;2022-07-01T10:52:09;12.52;;;6.63;;
51780;SDS011;37844;57.126;24.288;2022-07-01T10:59:40;8.10;;;5.97;;
51780;SDS011;37844;57.126;24.288;2022-07-01T11:02:12;19.42;;;7.55;;
51780;SDS011;37844;57.126;24.288;2022-07-01T11:04:42;8.00;;;5.88;;
51780;SDS011;37844;57.126;24.288;2022-07-01T11:07:10;8.95;;;6.28;;
51780;SDS011;37844;57.126;24.288;2022-07-01T11:12:02;12.60;;;7.13;;
51780;SDS011;37844;57.126;24.288;2022-07-01T11:14:31;10.68;;;7.38;;
51780;SDS011;37844;57.126;24.288;2022-07-01T11:16:59;18.75;;;7.32;;
51780;SDS011;37844;57.126;24.288;2022-07-01T11:19:26;11.25;;;6.20;;
51780;SDS011;37844;57.126;24.288;2022-07-01T11:21:51;13.43;;;6.20;;
51780;SDS011;37844;57.126;24.288;2022-07-01T11:24:18;10.15;;;6.50;;
51780;SDS011;37844;57.126;24.288;2022-07-01T11:26:44;12.50;;;7.47;;
51780;SDS011;37844;57.126;24.288;2022-07-01T11:29:11;13.73;;;8.50;;
51780;SDS011;37844;57.126;24.288;2022-07-01T11:31:37;10.23;;;6.80;;
51780;SDS011;37844;57.126;24.288;2022-07-01T11:34:03;12.65;;;7.75;;
51780;SDS011;37844;57.126;24.288;2022-07-01T11:36:29;9.05;;;6.72;;
51780;SDS011;37844;57.126;24.288;2022-07-01T11:39:14;9.93;;;6.80;;
51780;SDS011;37844;57.126;24.288;2022-07-01T11:41:52;15.02;;;7.80;;
51780;SDS011;37844;57.126;24.288;2022-07-01T11:44:39;20.85;;;7.68;;
51780;SDS011;37844;57.126;24.288;2022-07-01T11:47:27;12.60;;;7.18;;
51780;SDS011;37844;57.126;24.288;2022-07-01T11:49:52;13.80;;;9.10;;
51780;SDS011;37844;57.126;24.288;2022-07-01T11:52:18;18.63;;;7.38;;
51780;SDS011;37844;57.126;24.288;2022-07-01T11:54:45;12.27;;;7.50;;
51780;SDS011;37844;57.126;24.288;2022-07-01T11:57:14;16.92;;;7.28;;
51780;SDS011;37844;57.126;24.288;2022-07-01T11:59:41;9.55;;;6.45;;
51780;SDS011;37844;57.126;24.288;2022-07-01T12:02:08;11.63;;;6.70;;
51780;SDS011;37844;57.126;24.288;2022-07-01T12:04:37;25.15;;;9.38;;
51780;SDS011;37844;57.126;24.288;2022-07-01T12:07:03;10.88;;;7.22;;
51780;SDS011;37844;57.126;24.288;2022-07-01T12:09:30;10.30;;;7.38;;
51780;SDS011;37844;57.126;24.288;2022-07-01T12:11:56;14.50;;;7.10;;
51780;SDS011;37844;57.126;24.288;2022-07-01T12:14:40;10.68;;;6.70;;
51780;SDS011;37844;57.126;24.288;2022-07-01T12:17:06;10.65;;;6.85;;
51780;SDS011;37844;57.126;24.288;2022-07-01T12:19:37;10.98;;;6.55;;
51780;SDS011;37844;57.126;24.288;2022-07-01T12:22:11;12.13;;;6.53;;
51780;SDS011;37844;57.126;24.288;2022-07-01T12:24:39;14.13;;;7.28;;
51780;SDS011;37844;57.126;24.288;2022-07-01T12:27:06;11.27;;;5.90;;
51780;SDS011;37844;57.126;24.288;2022-07-01T12:32:11;12.13;;;7.25;;
51780;SDS011;37844;57.126;24.288;2022-07-01T12:37:12;11.38;;;6.53;;
51780;SDS011;37844;57.126;24.288;2022-07-01T12:39:42;9.45;;;5.95;;
51780;SDS011;37844;57.126;24.288;2022-07-01T12:45:11;12.65;;;5.55;;
51780;SDS011;37844;57.126;24.288;2022-07-01T12:47:39;14.10;;;6.35;;
51780;SDS011;37844;57.126;24.288;2022-07-01T12:50:18;11.35;;;6.50;;
51780;SDS011;37844;57.126;24.288;2022-07-01T12:53:05;9.48;;;6.30;;
51780;SDS011;37844;57.126;24.288;2022-07-01T12:55:32;11.43;;;6.70;;
51780;SDS011;37844;57.126;24.288;2022-07-01T12:57:59;9.82;;;6.68;;
51780;SDS011;37844;57.126;24.288;2022-07-01T13:00:26;16.17;;;6.07;;
51780;SDS011;37844;57.126;24.288;2022-07-01T13:02:54;9.70;;;6.45;;
51780;SDS011;37844;57.126;24.288;2022-07-01T13:05:22;13.07;;;5.75;;
51780;SDS011;37844;57.126;24.288;2022-07-01T13:07:48;8.60;;;6.03;;
51780;SDS011;37844;57.126;24.288;2022-07-01T13:10:14;8.30;;;6.05;;
51780;SDS011;37844;57.126;24.288;2022-07-01T13:12:41;9.65;;;5.88;;
51780;SDS011;37844;57.126;24.288;2022-07-01T13:15:07;8.82;;;4.85;;
51780;SDS011;37844;57.126;24.288;2022-07-01T13:17:33;7.63;;;4.88;;
51780;SDS011;37844;57.126;24.288;2022-07-01T13:19:58;12.70;;;5.32;;
51780;SDS011;37844;57.126;24.288;2022-07-01T13:22:24;10.30;;;5.78;;
51780;SDS011;37844;57.126;24.288;2022-07-01T13:24:50;9.20;;;5.18;;
51780;SDS011;37844;57.126;24.288;2022-07-01T13:27:15;7.35;;;4.57;;
51780;SDS011;37844;57.126;24.288;2022-07-01T13:29:41;14.18;;;4.95;;
51780;SDS011;37844;57.126;24.288;2022-07-01T13:32:06;9.20;;;5.43;;
51780;SDS011;37844;57.126;24.288;2022-07-01T13:34:32;9.40;;;5.07;;
51780;SDS011;37844;57.126;24.288;2022-07-01T13:36:59;8.82;;;6.60;;
51780;SDS011;37844;57.126;24.288;2022-07-01T13:39:25;8.90;;;5.38;;
51780;SDS011;37844;57.126;24.288;2022-07-01T13:41:50;8.50;;;5.75;;
51780;SDS011;37844;57.126;24.288;2022-07-01T13:44:16;12.90;;;5.45;;
51780;SDS011;37844;57.126;24.288;2022-07-01T13:46:41;9.10;;;5.97;;
51780;SDS011;37844;57.126;24.288;2022-07-01T13:49:07;8.85;;;5.38;;
51780;SDS011;37844;57.126;24.288;2022-07-01T13:51:33;10.35;;;4.70;;
51780;SDS011;37844;57.126;24.288;2022-07-01T13:53:59;7.35;;;5.18;;
51780;SDS011;37844;57.126;24.288;2022-07-01T13:56:26;9.25;;;5.70;;
51780;SDS011;37844;57.126;24.288;2022-07-01T13:58:52;11.20;;;5.38;;
51780;SDS011;37844;57.126;24.288;2022-07-01T14:01:20;12.13;;;6.72;;
51780;SDS011;37844;57.126;24.288;2022-07-01T14:03:48;10.50;;;5.05;;
51780;SDS011;37844;57.126;24.288;2022-07-01T14:06:14;14.43;;;5.22;;
51780;SDS011;37844;57.126;24.288;2022-07-01T14:08:40;16.55;;;5.57;;
51780;SDS011;37844;57.126;24.288;2022-07-01T14:11:06;10.13;;;4.90;;
51780;SDS011;37844;57.126;24.288;2022-07-01T14:13:32;20.75;;;5.82;;
51780;SDS011;37844;57.126;24.288;2022-07-01T14:15:59;8.43;;;5.32;;
51780;SDS011;37844;57.126;24.288;2022-07-01T14:18:26;12.35;;;5.80;;
51780;SDS011;37844;57.126;24.288;2022-07-01T14:20:52;13.60;;;6.05;;
51780;SDS011;37844;57.126;24.288;2022-07-01T14:23:18;8.93;;;6.20;;
51780;SDS011;37844;57.126;24.288;2022-07-01T14:25:44;13.18;;;6.40;;
51780;SDS011;37844;57.126;24.288;2022-07-01T14:28:10;9.55;;;6.05;;
51780;SDS011;37844;57.126;24.288;2022-07-01T14:30:37;16.98;;;7.20;;
51780;SDS011;37844;57.126;24.288;2022-07-01T14:33:02;8.43;;;5.78;;
51780;SDS011;37844;57.126;24.288;2022-07-01T14:35:28;16.20;;;5.93;;
51780;SDS011;37844;57.126;24.288;2022-07-01T14:37:54;14.88;;;6.72;;
51780;SDS011;37844;57.126;24.288;2022-07-01T14:40:20;17.95;;;6.28;;
51780;SDS011;37844;57.126;24.288;2022-07-01T14:42:45;11.23;;;5.38;;
51780;SDS011;37844;57.126;24.288;2022-07-01T14:45:11;11.35;;;6.55;;
51780;SDS011;37844;57.126;24.288;2022-07-01T14:47:42;13.43;;;7.07;;
51780;SDS011;37844;57.126;24.288;2022-07-01T14:50:08;16.20;;;6.40;;
51780;SDS011;37844;57.126;24.288;2022-07-01T14:52:34;14.60;;;6.78;;
51780;SDS011;37844;57.126;24.288;2022-07-01T14:55:00;13.00;;;6.20;;
51780;SDS011;37844;57.126;24.288;2022-07-01T14:57:26;13.68;;;6.40;;
51780;SDS011;37844;57.126;24.288;2022-07-01T14:59:52;10.80;;;6.97;;
51780;SDS011;37844;57.126;24.288;2022-07-01T15:02:30;11.68;;;7.32;;
51780;SDS011;37844;57.126;24.288;2022-07-01T15:04:56;12.85;;;6.70;;
51780;SDS011;37844;57.126;24.288;2022-07-01T15:07:22;12.77;;;6.55;;
51780;SDS011;37844;57.126;24.288;2022-07-01T15:09:49;14.60;;;8.70;;
51780;SDS011;37844;57.126;24.288;2022-07-01T15:12:16;11.50;;;6.65;;